createdAt,value
2023-03-01T00:01:36.988Z,0.54
2023-03-01T00:05:23.068Z,0.54
2023-03-01T00:08:59.814Z,0.59
2023-03-01T00:12:38.522Z,0.58
2023-03-01T00:16:14.100Z,0.57
2023-03-01T00:19:50.447Z,0.35
2023-03-01T00:23:23.143Z,0.41
2023-03-01T00:26:55.278Z,0.43
2023-03-01T00:30:19.984Z,0.33
2023-03-01T00:33:44.541Z,0.41
2023-03-01T00:37:18.155Z,0.39
2023-03-01T00:40:55.026Z,0.39
2023-03-01T00:44:33.646Z,0.34
2023-03-01T00:48:10.985Z,0.41
2023-03-01T00:51:46.558Z,0.39
2023-03-01T00:55:25.040Z,0.19
2023-03-01T00:58:59.999Z,0.18
2023-03-01T01:02:38.326Z,0.19
2023-03-01T01:06:13.284Z,0.28
2023-03-01T01:09:52.670Z,0.20
2023-03-01T01:13:29.236Z,0.33
2023-03-01T01:17:08.238Z,0.66
2023-03-01T01:20:46.261Z,0.77
2023-03-01T01:24:25.155Z,0.56
2023-03-01T01:28:00.223Z,0.33
2023-03-01T01:31:39.044Z,0.48
2023-03-01T01:35:14.034Z,0.21
2023-03-01T01:38:52.547Z,0.16
2023-03-01T01:42:28.254Z,0.04
2023-03-01T01:46:07.168Z,0.20
2023-03-01T01:49:42.070Z,0.10
2023-03-01T01:53:21.380Z,0.36
2023-03-01T01:56:57.509Z,0.43
2023-03-01T02:00:35.977Z,0.50
2023-03-01T02:04:11.169Z,0.50
2023-03-01T02:07:52.433Z,0.53
2023-03-01T02:11:27.202Z,0.50
2023-03-01T02:15:08.182Z,0.46
2023-03-01T02:18:43.052Z,0.48
2023-03-01T02:22:22.796Z,0.43
2023-03-01T02:25:58.398Z,0.33
2023-03-01T02:29:38.480Z,0.41
2023-03-01T02:33:14.446Z,0.31
2023-03-01T02:36:53.220Z,0.43
2023-03-01T02:40:28.562Z,0.51
2023-03-01T02:44:07.391Z,0.65
2023-03-01T02:47:43.516Z,0.72
2023-03-01T02:51:22.027Z,0.73
2023-03-01T02:54:57.130Z,0.68
2023-03-01T02:58:36.198Z,0.84
2023-03-01T03:02:11.120Z,0.38
2023-03-01T03:05:48.358Z,0.23
2023-03-01T03:09:27.491Z,0.21
2023-03-01T03:13:03.347Z,0.23
2023-03-01T03:16:42.069Z,0.18
2023-03-01T03:20:17.454Z,0.19
2023-03-01T03:23:58.328Z,0.24
2023-03-01T03:27:34.223Z,0.28
2023-03-01T03:31:14.685Z,0.27
2023-03-01T03:34:52.383Z,0.23
2023-03-01T03:38:31.812Z,0.32
2023-03-01T03:42:07.650Z,0.88
2023-03-01T03:45:46.096Z,0.56
2023-03-01T03:49:22.480Z,1.06
2023-03-01T03:53:01.290Z,0.99
2023-03-01T03:56:36.143Z,1.02
2023-03-01T04:00:15.848Z,1.03
2023-03-01T04:03:51.302Z,0.99
2023-03-01T04:07:33.812Z,0.96
2023-03-01T04:11:12.384Z,0.89
2023-03-01T04:14:49.028Z,0.87
2023-03-01T04:18:27.768Z,0.81
2023-03-01T04:22:02.482Z,0.66
2023-03-01T04:25:41.137Z,0.54
2023-03-01T04:29:16.350Z,0.56
2023-03-01T04:32:55.068Z,0.55
2023-03-01T04:36:31.148Z,0.47
2023-03-01T04:40:10.578Z,0.53
2023-03-01T04:43:45.308Z,0.68
2023-03-01T04:47:22.158Z,0.29
2023-03-01T04:50:57.342Z,0.06
2023-03-01T04:54:36.197Z,0.07
2023-03-01T04:58:11.795Z,0.43
2023-03-01T05:01:50.386Z,0.89
2023-03-01T05:05:24.898Z,1.00
2023-03-01T05:09:23.473Z,1.21
2023-03-01T05:12:58.778Z,1.23
2023-03-01T05:16:37.259Z,1.43
2023-03-01T05:20:11.011Z,1.36
2023-03-01T05:23:49.957Z,1.47
2023-03-01T05:27:25.715Z,1.57
2023-03-01T05:31:05.433Z,1.65
2023-03-01T05:34:40.932Z,1.69
2023-03-01T05:38:19.717Z,1.93
2023-03-01T05:41:54.643Z,2.12
2023-03-01T05:45:37.179Z,2.22
2023-03-01T05:49:12.728Z,2.27
2023-03-01T05:52:49.079Z,2.31
2023-03-01T05:56:24.527Z,2.27
2023-03-01T06:00:03.384Z,2.30
2023-03-01T06:03:39.068Z,2.31
2023-03-01T06:07:18.219Z,2.32
2023-03-01T06:10:55.060Z,2.50
2023-03-01T06:14:34.227Z,2.53
2023-03-01T06:18:15.707Z,2.71
2023-03-01T06:21:52.307Z,2.80
2023-03-01T06:25:30.748Z,2.78
2023-03-01T06:29:11.916Z,2.75
2023-03-01T06:32:50.467Z,2.76
2023-03-01T06:36:27.080Z,2.91
2023-03-01T06:40:06.983Z,3.30
2023-03-01T06:43:43.201Z,3.32
2023-03-01T06:47:23.142Z,3.39
2023-03-01T06:51:01.298Z,3.55
2023-03-01T06:54:41.169Z,3.73
2023-03-01T06:58:21.361Z,3.77
2023-03-01T07:02:01.148Z,3.84
2023-03-01T07:05:38.316Z,3.89
2023-03-01T07:09:17.993Z,4.10
2023-03-01T07:12:55.339Z,4.43
2023-03-01T07:16:36.243Z,4.67
2023-03-01T07:20:13.252Z,4.84
2023-03-01T07:23:53.108Z,4.83
2023-03-01T07:27:31.236Z,4.64
2023-03-01T07:31:11.134Z,4.99
2023-03-01T07:34:49.406Z,4.98
2023-03-01T07:38:29.296Z,5.00
2023-03-01T07:42:06.224Z,4.95
2023-03-01T07:45:46.397Z,5.00
2023-03-01T07:49:23.254Z,4.95
2023-03-01T07:53:03.116Z,5.09
2023-03-01T07:56:41.010Z,5.22
2023-03-01T12:53:49.846Z,1.84
2023-03-01T12:56:39.733Z,2.05
2023-03-01T12:59:32.907Z,2.33
2023-03-01T13:03:15.415Z,2.54
2023-03-01T13:06:43.667Z,2.61
2023-03-01T13:09:36.342Z,2.76
2023-03-01T13:13:02.247Z,2.78
2023-03-01T13:15:54.800Z,2.81
2023-03-01T13:18:45.007Z,2.82
2023-03-01T13:21:34.157Z,2.84
2023-03-01T13:24:42.329Z,2.90
2023-03-01T13:27:33.333Z,2.90
2023-03-01T13:30:34.712Z,2.92
2023-03-01T13:33:35.298Z,2.90
2023-03-01T13:36:31.420Z,2.80
2023-03-01T13:39:39.822Z,2.73
2023-03-01T13:42:33.448Z,2.69
2023-03-01T13:45:31.614Z,2.65
2023-03-01T13:48:28.909Z,2.62
2023-03-01T13:51:22.643Z,2.55
2023-03-01T13:54:12.503Z,2.57
2023-03-01T13:57:04.396Z,2.59
2023-03-01T13:59:53.447Z,2.57
2023-03-01T14:02:44.733Z,2.56
2023-03-01T14:05:34.506Z,2.52
2023-03-01T14:08:28.942Z,2.50
2023-03-01T14:11:26.141Z,2.40
2023-03-01T14:14:53.278Z,2.39
2023-03-01T14:17:45.129Z,2.39
2023-03-01T14:20:48.358Z,2.43
2023-03-01T14:23:39.287Z,2.48
2023-03-01T14:26:28.597Z,2.48
2023-03-01T14:29:27.114Z,2.44
2023-03-01T14:32:25.255Z,2.42
2023-03-01T14:35:22.163Z,2.47
2023-03-01T14:38:22.318Z,2.48
2023-03-01T14:41:16.795Z,2.45
2023-03-01T14:44:08.854Z,2.45
2023-03-01T14:47:03.280Z,2.44
2023-03-01T14:49:54.879Z,2.42
2023-03-01T14:52:45.932Z,2.43
2023-03-01T14:55:42.153Z,2.42
2023-03-01T14:58:33.468Z,2.38
2023-03-01T15:01:22.644Z,2.37
2023-03-01T15:04:13.590Z,2.36
2023-03-01T15:07:06.222Z,2.27
2023-03-01T15:09:55.392Z,2.24
2023-03-01T15:12:44.859Z,2.26
2023-03-01T15:15:39.368Z,2.29
2023-03-01T15:18:36.293Z,2.29
2023-03-01T15:21:32.091Z,2.30
2023-03-01T15:24:25.416Z,2.18
2023-03-01T15:27:19.667Z,2.08
2023-03-01T15:30:18.922Z,2.06
2023-03-01T15:33:21.844Z,2.08
2023-03-01T15:36:46.876Z,2.10
2023-03-01T15:39:40.293Z,2.10
2023-03-01T15:42:29.672Z,2.09
2023-03-01T15:45:24.535Z,2.12
2023-03-01T15:48:19.170Z,2.07
2023-03-01T15:51:11.337Z,2.04
2023-03-01T15:54:23.127Z,2.05
2023-03-01T15:57:14.629Z,2.01
2023-03-01T16:00:12.265Z,2.05
2023-03-01T16:03:02.200Z,2.07
2023-03-01T16:05:52.010Z,2.06
2023-03-01T16:08:42.168Z,2.01
2023-03-01T16:11:33.566Z,2.03
2023-03-01T16:14:23.041Z,2.01
2023-03-01T16:17:12.206Z,2.00
2023-03-01T16:20:01.168Z,1.99
2023-03-01T16:22:50.390Z,1.98
2023-03-01T16:25:41.048Z,1.97
2023-03-01T16:28:30.530Z,1.94
2023-03-01T16:31:20.356Z,1.93
2023-03-01T16:34:13.361Z,1.91
2023-03-01T16:37:03.900Z,1.84
2023-03-01T16:39:54.062Z,1.80
2023-03-01T16:42:43.232Z,1.71
2023-03-01T16:45:37.968Z,1.65
2023-03-01T16:48:27.676Z,1.63
2023-03-01T16:51:21.851Z,1.61
2023-03-01T16:54:11.903Z,1.63
2023-03-01T16:57:01.225Z,1.65
2023-03-01T16:59:54.781Z,1.67
2023-03-01T17:02:45.845Z,1.66
2023-03-01T17:05:35.275Z,1.67
2023-03-01T17:08:25.819Z,1.70
2023-03-01T17:11:17.426Z,1.73
2023-03-01T17:14:06.419Z,1.73
2023-03-01T17:16:55.613Z,1.73
2023-03-01T17:19:44.737Z,1.70
2023-03-01T17:22:34.285Z,1.73
2023-03-01T17:25:23.642Z,1.71
2023-03-01T17:28:13.791Z,1.71
2023-03-01T17:31:03.671Z,1.69
2023-03-01T17:33:52.688Z,1.74
2023-03-01T17:36:44.284Z,1.77
2023-03-01T17:39:36.354Z,1.76
2023-03-01T17:42:25.756Z,1.78
2023-03-01T17:45:14.854Z,1.83
2023-03-01T17:48:04.578Z,1.86
2023-03-01T17:51:13.599Z,1.86
2023-03-01T17:54:04.057Z,1.85
2023-03-01T17:56:53.585Z,1.85
2023-03-01T17:59:43.001Z,1.87
2023-03-01T18:02:32.788Z,1.93
2023-03-01T18:05:23.218Z,1.97
2023-03-01T18:08:13.536Z,2.02
2023-03-01T18:11:02.761Z,2.01
2023-03-01T18:13:51.940Z,2.00
2023-03-01T18:16:41.028Z,2.02
2023-03-01T18:19:32.660Z,2.01
2023-03-01T18:22:22.049Z,2.03
2023-03-01T18:25:12.545Z,2.03
2023-03-01T18:28:02.592Z,2.04
2023-03-01T18:30:57.804Z,2.08
2023-03-01T18:33:47.042Z,2.12
2023-03-01T18:36:38.369Z,2.12
2023-03-01T18:39:28.775Z,2.14
2023-03-01T18:42:20.533Z,2.04
2023-03-01T18:45:10.669Z,1.99
2023-03-01T18:48:04.477Z,1.97
2023-03-01T18:50:53.803Z,1.98
2023-03-01T18:53:47.881Z,1.99
2023-03-01T18:56:37.159Z,1.97
2023-03-01T18:59:26.213Z,1.96
2023-03-01T19:02:15.854Z,1.94
2023-03-01T19:05:09.451Z,1.96
2023-03-01T19:07:58.969Z,1.98
2023-03-01T19:10:56.047Z,1.91
2023-03-01T19:13:45.652Z,1.91
2023-03-01T19:16:40.638Z,1.91
2023-03-01T19:19:29.949Z,1.92
2023-03-01T19:22:19.329Z,1.93
2023-03-01T19:25:08.966Z,1.93
2023-03-01T19:27:58.323Z,1.90
2023-03-01T19:30:47.690Z,1.89
2023-03-01T19:33:37.412Z,1.89
2023-03-01T19:36:33.484Z,1.92
2023-03-01T19:39:22.694Z,1.93
2023-03-01T19:42:12.229Z,1.90
2023-03-01T19:45:07.834Z,1.89
2023-03-01T19:47:57.799Z,1.86
2023-03-01T19:50:46.990Z,1.87
2023-03-01T19:53:38.290Z,1.81
2023-03-01T19:56:27.658Z,1.76
2023-03-01T19:59:24.579Z,1.74
2023-03-01T20:02:13.816Z,1.71
2023-03-01T20:05:02.808Z,1.73
2023-03-01T20:07:57.398Z,1.72
2023-03-01T20:10:46.279Z,1.69
2023-03-01T20:13:35.866Z,1.62
2023-03-01T20:16:27.009Z,1.61
2023-03-01T20:19:16.576Z,1.61
2023-03-01T20:22:05.685Z,1.63
2023-03-01T20:24:54.835Z,1.65
2023-03-01T20:27:47.719Z,1.69
2023-03-01T20:30:38.741Z,1.64
2023-03-01T20:33:27.812Z,1.63
2023-03-01T20:36:17.582Z,1.66
2023-03-01T20:39:09.829Z,1.65
2023-03-01T20:41:58.442Z,1.63
2023-03-01T20:44:48.170Z,1.61
2023-03-01T20:47:38.216Z,1.64
2023-03-01T20:50:28.107Z,1.67
2023-03-01T20:53:17.584Z,1.70
2023-03-01T20:56:08.396Z,1.71
2023-03-01T20:59:00.482Z,1.64
2023-03-01T21:01:49.900Z,1.63
2023-03-01T21:04:39.194Z,1.62
2023-03-01T21:07:28.304Z,1.64
2023-03-01T21:10:17.548Z,1.64
2023-03-01T21:13:07.706Z,1.62
2023-03-01T21:15:59.967Z,1.64
2023-03-01T21:18:49.320Z,1.65
2023-03-01T21:21:38.441Z,1.67
2023-03-01T21:24:27.520Z,1.65
2023-03-01T21:27:16.712Z,1.66
2023-03-01T21:30:06.595Z,1.65
2023-03-01T21:32:56.977Z,1.67
2023-03-01T21:35:46.001Z,1.64
2023-03-01T21:38:43.017Z,1.63
2023-03-01T21:41:33.833Z,1.62
2023-03-01T21:44:24.684Z,1.61
2023-03-01T21:47:13.771Z,1.58
2023-03-01T21:50:02.731Z,1.59
2023-03-01T21:52:51.623Z,1.60
2023-03-01T21:55:47.179Z,1.62
2023-03-01T21:58:36.084Z,1.61
2023-03-01T22:01:27.362Z,1.62
2023-03-01T22:04:16.680Z,1.61
2023-03-01T22:07:06.186Z,1.64
2023-03-01T22:09:55.228Z,1.67
2023-03-01T22:12:46.184Z,1.60
2023-03-01T22:15:35.238Z,1.56
2023-03-01T22:18:24.675Z,1.55
2023-03-01T22:21:13.873Z,1.57
2023-03-01T22:24:04.043Z,1.52
2023-03-01T22:26:54.998Z,1.48
2023-03-01T22:29:43.992Z,1.43
2023-03-01T22:32:33.660Z,1.35
2023-03-01T22:35:22.765Z,1.24
2023-03-01T22:38:12.297Z,1.18
2023-03-01T22:41:04.763Z,1.09
2023-03-01T22:43:54.372Z,0.83
2023-03-01T22:46:45.548Z,0.70
2023-03-01T22:49:35.026Z,0.60
2023-03-01T22:52:24.117Z,0.45
2023-03-01T22:55:13.693Z,0.34
2023-03-01T22:58:02.695Z,0.24
2023-03-01T23:00:52.056Z,0.22
2023-03-01T23:03:41.208Z,0.09
2023-03-01T23:06:31.210Z,0.01
2023-03-01T23:09:30.881Z,-0.07
2023-03-01T23:12:19.566Z,-0.13
2023-03-01T23:15:10.508Z,-0.17
2023-03-01T23:17:59.725Z,-0.25
2023-03-01T23:20:48.844Z,-0.34
2023-03-01T23:23:38.548Z,-0.39
2023-03-01T23:26:28.093Z,-0.44
2023-03-01T23:29:17.212Z,-0.50
2023-03-01T23:32:06.264Z,-0.70
2023-03-01T23:34:55.395Z,-0.78
2023-03-01T23:37:45.575Z,-0.82
2023-03-01T23:40:34.608Z,-0.89
2023-03-01T23:43:23.794Z,-0.91
2023-03-01T23:46:14.512Z,-0.95
2023-03-01T23:49:04.714Z,-0.96
2023-03-01T23:51:53.842Z,-1.02
2023-03-01T23:54:43.666Z,-1.01
2023-03-01T23:57:34.523Z,-1.02
